Time;durP1;ratioP1;P1;durP2;ratioP2;P2;SDS_P1;SDS_P2;PMS_P1;PMS_P2;Temp;Humidity;BMP_temperature;BMP_pressure;BME280_temperature;BME280_humidity;BME280_pressure;Samples;Min_cycle;Max_cycle;Signal;HPM_P1;HPM_P2
2024/02/09 00:02:20;;;;;;;10.80;9.80;;;;;;;1.13;100.00;99506.78;10106763;28;20047;-72
2024/02/09 00:07:17;;;;;;;10.10;9.30;;;;;;;1.24;100.00;99486.75;10105590;28;20050;-71
2024/02/09 00:12:13;;;;;;;9.98;9.27;;;;;;;1.11;100.00;99471.25;10101486;28;20059;-73
2024/02/09 00:17:10;;;;;;;10.38;9.60;;;;;;;1.18;100.00;99460.94;10097934;28;20039;-73
2024/02/09 00:22:06;;;;;;;10.95;10.13;;;;;;;1.24;100.00;99443.66;10108561;28;20082;-74
2024/02/09 00:27:04;;;;;;;11.25;10.23;;;;;;;1.29;100.00;99430.13;10116007;28;20569;-74
2024/02/09 00:32:01;;;;;;;10.57;9.77;;;;;;;1.35;100.00;99423.59;10106826;28;20066;-72
2024/02/09 00:36:57;;;;;;;10.70;9.80;;;;;;;1.18;100.00;99401.72;10107869;28;20179;-72
2024/02/09 00:41:54;;;;;;;11.52;10.63;;;;;;;1.04;100.00;99402.44;10098216;28;20110;-74
2024/02/09 00:46:51;;;;;;;11.77;10.70;;;;;;;1.27;100.00;99416.16;10113514;28;20042;-74
2024/02/09 00:51:49;;;;;;;11.85;10.68;;;;;;;1.20;100.00;99413.00;10109238;28;20038;-74
2024/02/09 00:56:46;;;;;;;13.35;12.05;;;;;;;1.14;100.00;99390.72;10106534;28;20043;-75
2024/02/09 01:01:43;;;;;;;12.88;11.75;;;;;;;1.11;100.00;99380.53;10104779;28;20590;-75
2024/02/09 01:06:55;;;;;;;12.68;11.63;;;;;;;1.01;100.00;99376.06;10104194;28;20047;-73
2024/02/09 01:11:51;;;;;;;12.55;11.50;;;;;;;0.84;100.00;99370.34;10100138;28;20541;-75
2024/02/09 02:46:13;;;;;;;12.52;11.25;;;;;;;0.75;100.00;99194.50;10092840;28;20049;-77
2024/02/09 03:07:23;;;;;;;11.77;10.88;;;;;;;0.63;100.00;99144.59;10105017;28;20046;-76
2024/02/09 03:12:40;;;;;;;11.23;10.23;;;;;;;0.69;100.00;99141.84;10096184;28;20043;-75
2024/02/09 03:17:41;;;;;;;12.73;11.68;;;;;;;0.50;100.00;99139.16;10104722;28;20067;-76
2024/02/09 03:22:37;;;;;;;12.98;11.68;;;;;;;0.55;100.00;99136.38;10111174;28;20499;-76
2024/02/09 03:27:35;;;;;;;12.45;11.35;;;;;;;0.60;100.00;99123.69;10105325;28;20158;-78
2024/02/09 03:32:33;;;;;;;12.15;11.07;;;;;;;0.56;100.00;99114.59;10103772;28;20069;-76
2024/02/09 03:37:33;;;;;;;12.35;11.35;;;;;;;0.63;100.00;99098.88;10127211;28;20481;-75
2024/02/09 03:42:29;;;;;;;11.90;10.80;;;;;;;0.57;100.00;99086.59;10097127;28;20068;-75
2024/02/09 03:47:27;;;;;;;11.57;10.65;;;;;;;0.52;100.00;99086.66;10110583;28;20046;-75
2024/02/09 03:52:24;;;;;;;11.73;10.55;;;;;;;0.54;100.00;99062.19;10123130;28;20439;-81
2024/02/09 03:57:26;;;;;;;12.23;11.13;;;;;;;0.48;100.00;99066.81;10098174;28;20074;-74
2024/02/09 04:02:22;;;;;;;12.48;11.48;;;;;;;0.37;100.00;99054.59;10089523;28;20109;-72
2024/02/09 04:07:20;;;;;;;12.82;11.80;;;;;;;0.47;100.00;99054.47;10111076;28;20046;-72
2024/02/09 04:12:18;;;;;;;12.82;11.77;;;;;;;0.55;100.00;99043.03;10105673;28;20651;-72
2024/02/09 04:17:14;;;;;;;13.43;12.32;;;;;;;0.46;100.00;99025.97;10087459;28;20309;-74
2024/02/09 04:22:10;;;;;;;12.48;11.38;;;;;;;0.32;100.00;99033.19;10103740;28;20553;-74
2024/02/09 04:27:07;;;;;;;12.38;11.48;;;;;;;0.38;100.00;99007.81;10109489;28;20403;-76
2024/02/09 04:32:04;;;;;;;12.50;11.38;;;;;;;0.44;100.00;99001.25;10102131;28;20058;-74
2024/02/09 04:37:01;;;;;;;12.90;11.80;;;;;;;0.28;100.00;98992.66;10096049;28;20047;-74
2024/02/09 04:41:58;;;;;;;12.57;11.57;;;;;;;0.33;100.00;98986.41;10112727;28;20043;-75
2024/02/09 04:46:55;;;;;;;12.02;11.07;;;;;;;0.35;100.00;98987.69;10106440;28;20046;-74
2024/02/09 04:51:52;;;;;;;12.57;11.48;;;;;;;0.27;100.00;98979.50;10124521;28;20050;-76
2024/02/09 04:56:49;;;;;;;12.73;11.73;;;;;;;0.30;100.00;98962.78;10110430;28;20097;-75
2024/02/09 05:01:45;;;;;;;12.82;11.80;;;;;;;0.41;100.00;98959.63;10108452;28;20035;-75
2024/02/09 05:06:42;;;;;;;12.93;11.82;;;;;;;0.35;100.00;98954.66;10098746;28;20495;-76
2024/02/09 05:11:39;;;;;;;12.98;12.07;;;;;;;0.34;100.00;98953.03;10106061;28;20049;-75
2024/02/09 05:16:41;;;;;;;13.90;12.90;;;;;;;0.35;100.00;98944.69;10102331;28;20121;-73
2024/02/09 05:21:39;;;;;;;13.90;12.52;;;;;;;0.32;100.00;98944.47;10108889;28;20070;-73
2024/02/09 05:26:35;;;;;;;13.10;12.20;;;;;;;0.22;100.00;98933.88;10096816;28;20394;-73
2024/02/09 05:31:32;;;;;;;14.90;13.70;;;;;;;0.26;100.00;98929.53;10093013;28;20043;-75
2024/02/09 05:36:28;;;;;;;14.23;13.23;;;;;;;0.36;100.00;98918.59;10100452;28;20046;-75
2024/02/09 05:41:25;;;;;;;14.48;13.38;;;;;;;0.38;100.00;98916.41;10100180;28;20183;-76
2024/02/09 05:46:26;;;;;;;14.57;13.57;;;;;;;0.30;100.00;98925.13;10104951;28;20042;-77
2024/02/09 05:51:23;;;;;;;13.65;12.75;;;;;;;0.43;100.00;98913.63;10106879;28;20135;-76
2024/02/09 05:56:24;;;;;;;13.73;12.73;;;;;;;0.40;100.00;98914.22;10113097;28;20050;-74
2024/02/09 06:01:21;;;;;;;13.70;12.80;;;;;;;0.46;100.00;98917.63;10098853;28;20529;-75
2024/02/09 06:06:20;;;;;;;14.23;12.95;;;;;;;0.46;100.00;98907.66;10103671;28;20577;-75
2024/02/09 06:11:17;;;;;;;14.50;13.52;;;;;;;0.41;100.00;98905.06;10098890;28;20058;-74
2024/02/09 06:16:16;;;;;;;14.40;13.40;;;;;;;0.41;100.00;98894.31;10085763;28;20047;-75
2024/02/09 06:21:18;;;;;;;13.88;12.88;;;;;;;0.42;100.00;98879.78;10098450;28;20771;-71
2024/02/09 06:26:23;;;;;;;14.40;13.40;;;;;;;0.38;100.00;98881.47;10091360;28;20493;-74
2024/02/09 06:31:24;;;;;;;14.32;13.07;;;;;;;0.33;100.00;98884.25;10104904;28;20458;-74
2024/02/09 06:36:21;;;;;;;14.30;13.30;;;;;;;0.30;100.00;98877.56;10096294;28;20433;-74
2024/02/09 06:41:19;;;;;;;13.25;12.35;;;;;;;0.36;100.00;98878.25;10110441;28;20089;-73
2024/02/09 06:46:17;;;;;;;13.95;12.98;;;;;;;0.29;100.00;98880.53;10098628;28;20498;-74
2024/02/09 06:51:19;;;;;;;12.60;11.70;;;;;;;0.32;100.00;98874.56;10098135;28;20536;-75
2024/02/09 06:56:17;;;;;;;12.57;11.73;;;;;;;0.31;100.00;98872.97;10097388;28;20054;-71
2024/02/09 07:01:13;;;;;;;12.63;11.80;;;;;;;0.36;100.00;98875.56;10099842;28;20055;-72
2024/02/09 07:06:10;;;;;;;12.68;11.75;;;;;;;0.45;100.00;98862.25;10108940;28;20465;-71
2024/02/09 07:11:08;;;;;;;12.90;12.00;;;;;;;0.46;100.00;98859.25;10094049;28;20463;-73
2024/02/09 07:16:05;;;;;;;12.50;11.70;;;;;;;0.40;100.00;98861.25;10108031;28;20062;-73
2024/02/09 07:21:02;;;;;;;13.00;12.00;;;;;;;0.38;100.00;98858.06;10093950;28;20043;-74
2024/02/09 07:25:58;;;;;;;13.27;12.35;;;;;;;0.35;100.00;98852.47;10090131;28;20054;-72
2024/02/09 07:30:56;;;;;;;12.10;11.30;;;;;;;0.39;100.00;98838.13;10104385;28;20051;-72
2024/02/09 07:35:52;;;;;;;12.70;11.70;;;;;;;0.58;100.00;98835.38;10107367;28;20812;-72
2024/02/09 07:40:49;;;;;;;12.10;11.20;;;;;;;0.45;100.00;98830.78;10097705;28;20063;-74
2024/02/09 07:45:46;;;;;;;12.40;11.52;;;;;;;0.53;100.00;98827.38;10089540;28;20058;-72
2024/02/09 07:50:44;;;;;;;12.35;11.45;;;;;;;0.52;100.00;98809.69;10090335;28;20044;-73
2024/02/09 07:55:40;;;;;;;12.02;11.23;;;;;;;0.55;100.00;98819.81;10096901;28;20545;-72
2024/02/09 08:00:37;;;;;;;12.20;11.27;;;;;;;0.66;100.00;98808.88;10102730;28;20054;-73
2024/02/09 08:05:35;;;;;;;12.82;11.88;;;;;;;0.55;100.00;98798.31;10103746;28;20078;-74
2024/02/09 08:10:32;;;;;;;11.82;11.02;;;;;;;0.53;100.00;98797.81;10100591;28;20054;-73
2024/02/09 08:15:29;;;;;;;12.40;11.50;;;;;;;0.65;100.00;98796.53;10090907;28;20135;-73
2024/02/09 08:20:25;;;;;;;11.60;10.70;;;;;;;0.66;100.00;98782.00;10096864;28;20062;-73
2024/02/09 08:25:22;;;;;;;12.40;11.40;;;;;;;0.59;100.00;98780.50;10100807;28;20260;-73
2024/02/09 08:30:19;;;;;;;11.68;10.88;;;;;;;0.64;100.00;98768.84;10094732;28;20426;-74
2024/02/09 08:35:15;;;;;;;12.35;11.35;;;;;;;0.63;100.00;98765.34;10095330;28;20050;-72
2024/02/09 08:40:13;;;;;;;12.23;11.32;;;;;;;0.79;100.00;98756.97;10106001;28;20430;-74
2024/02/09 08:45:10;;;;;;;12.40;11.50;;;;;;;0.63;100.00;98751.91;10095432;28;20047;-73
2024/02/09 08:50:07;;;;;;;12.20;11.30;;;;;;;0.62;100.00;98750.28;10104472;28;20043;-73
2024/02/09 08:55:03;;;;;;;12.52;11.40;;;;;;;0.76;100.00;98752.19;10095878;28;20531;-72
2024/02/09 09:00:00;;;;;;;12.70;11.77;;;;;;;0.82;100.00;98759.06;10094985;28;20137;-73
2024/02/09 09:04:57;;;;;;;12.38;11.48;;;;;;;0.75;100.00;98743.31;10097624;28;20042;-72
2024/02/09 09:09:54;;;;;;;12.23;11.20;;;;;;;0.86;100.00;98738.53;10090445;28;20082;-74
2024/02/09 09:14:51;;;;;;;11.77;10.80;;;;;;;0.85;100.00;98728.84;10090518;28;20054;-72
2024/02/09 09:19:47;;;;;;;12.10;11.10;;;;;;;0.93;100.00;98733.53;10086028;28;20063;-72
2024/02/09 09:24:44;;;;;;;12.52;11.52;;;;;;;0.89;100.00;98735.22;10098355;28;20133;-73
2024/02/09 09:29:41;;;;;;;12.40;11.50;;;;;;;0.96;100.00;98730.22;10106354;28;20453;-72
2024/02/09 09:34:37;;;;;;;11.60;10.80;;;;;;;1.11;100.00;98728.28;10102419;28;20094;-72
2024/02/09 09:39:34;;;;;;;12.20;11.30;;;;;;;1.00;100.00;98722.38;10099770;28;20047;-76
2024/02/09 09:44:33;;;;;;;11.82;10.93;;;;;;;1.13;100.00;98709.94;10095657;28;20043;-76
2024/02/09 09:49:30;;;;;;;11.75;10.95;;;;;;;1.19;100.00;98719.50;10092243;28;20046;-73
2024/02/09 09:54:30;;;;;;;11.85;10.95;;;;;;;1.14;100.00;98719.59;10095909;28;20034;-75
2024/02/09 09:59:29;;;;;;;12.23;11.32;;;;;;;1.04;100.00;98726.84;10097458;28;20059;-73
2024/02/09 10:04:25;;;;;;;12.80;11.73;;;;;;;1.03;100.00;98711.78;10104616;28;20446;-73
2024/02/09 10:09:22;;;;;;;13.18;12.35;;;;;;;1.16;100.00;98717.41;10110028;28;20169;-72
2024/02/09 10:14:20;;;;;;;11.68;10.93;;;;;;;1.35;100.00;98722.66;10096944;28;20527;-74
2024/02/09 10:19:16;;;;;;;11.52;10.73;;;;;;;1.49;100.00;98706.44;10098817;28;20039;-73
2024/02/09 10:24:14;;;;;;;11.77;10.95;;;;;;;1.51;100.00;98701.50;10110695;28;20058;-75
2024/02/09 10:29:11;;;;;;;12.07;11.32;;;;;;;1.33;100.00;98701.41;10112704;28;20370;-72
2024/02/09 10:34:08;;;;;;;12.25;11.35;;;;;;;1.30;100.00;98704.72;10116361;28;20672;-75
2024/02/09 10:39:05;;;;;;;12.00;11.20;;;;;;;1.40;100.00;98699.06;10110867;28;20046;-74
2024/02/09 10:44:02;;;;;;;12.68;11.43;;;;;;;1.42;100.00;98680.72;10115272;28;20057;-73
2024/02/09 10:49:01;;;;;;;11.10;10.30;;;;;;;1.27;100.00;98683.78;10111225;28;20062;-73
2024/02/09 10:54:10;;;;;;;11.35;10.63;;;;;;;1.24;100.00;98673.63;10102210;28;20126;-74
2024/02/09 10:59:07;;;;;;;11.95;11.13;;;;;;;1.28;100.00;98685.38;10107383;28;20128;-73
2024/02/09 11:04:04;;;;;;;11.48;10.68;;;;;;;1.33;100.00;98673.69;10103629;28;20549;-76
2024/02/09 11:09:01;;;;;;;11.60;10.60;;;;;;;1.52;100.00;98673.50;10108435;28;20048;-75
2024/02/09 11:14:09;;;;;;;11.45;10.65;;;;;;;1.37;100.00;98662.00;10108551;28;20502;-77
2024/02/09 11:19:10;;;;;;;11.48;10.77;;;;;;;1.43;100.00;98649.97;10112502;28;20051;-74
2024/02/09 11:24:09;;;;;;;11.10;10.23;;;;;;;1.32;100.00;98643.25;10105409;28;21159;-75
2024/02/09 11:29:05;;;;;;;11.07;10.38;;;;;;;1.47;100.00;98640.19;10109179;28;20125;-75
2024/02/09 11:34:02;;;;;;;11.23;10.52;;;;;;;1.62;100.00;98630.13;10102653;28;20066;-75
2024/02/09 11:38:59;;;;;;;11.90;11.10;;;;;;;1.47;100.00;98629.41;10108532;28;20054;-74
2024/02/09 11:43:56;;;;;;;11.80;10.95;;;;;;;1.42;100.00;98626.84;10115809;28;20049;-73
2024/02/09 11:48:52;;;;;;;11.40;10.25;;;;;;;1.42;100.00;98624.16;10113829;28;20043;-75
2024/02/09 11:53:50;;;;;;;11.30;10.50;;;;;;;1.55;100.00;98616.31;10103841;28;20043;-73
2024/02/09 11:58:50;;;;;;;11.18;10.40;;;;;;;1.51;100.00;98623.41;10088649;28;20134;-73
2024/02/09 12:03:47;;;;;;;11.20;10.40;;;;;;;1.32;100.00;98605.56;10098119;28;20046;-74
2024/02/09 12:08:44;;;;;;;10.93;10.02;;;;;;;1.50;100.00;98594.91;10100908;28;20109;-73
2024/02/09 12:13:41;;;;;;;11.15;10.45;;;;;;;1.71;100.00;98589.75;10101767;28;20048;-74
2024/02/09 12:18:44;;;;;;;11.15;10.35;;;;;;;1.68;100.00;98593.88;10097212;28;20047;-74
2024/02/09 12:23:41;;;;;;;12.10;11.20;;;;;;;1.85;100.00;98580.44;10102650;28;20046;-74
2024/02/09 12:28:37;;;;;;;11.98;11.27;;;;;;;2.06;100.00;98571.78;10101025;28;20054;-74
2024/02/09 12:33:41;;;;;;;11.38;10.68;;;;;;;1.94;100.00;98564.31;10109500;28;20529;-74
2024/02/09 12:38:40;;;;;;;11.90;11.02;;;;;;;1.79;100.00;98570.94;10112234;28;20053;-73
2024/02/09 12:43:44;;;;;;;12.57;11.77;;;;;;;1.89;100.00;98565.25;10092213;28;20038;-73
2024/02/09 12:48:42;;;;;;;11.75;10.95;;;;;;;1.97;100.00;98565.59;10106815;28;20426;-72
2024/02/09 12:53:38;;;;;;;11.80;10.90;;;;;;;1.99;100.00;98568.75;10105661;28;20043;-73
2024/02/09 12:58:35;;;;;;;11.85;11.15;;;;;;;1.99;100.00;98579.56;10111354;28;20099;-74
2024/02/09 13:03:33;;;;;;;11.45;10.75;;;;;;;1.99;100.00;98563.38;10109562;28;20113;-74
2024/02/09 13:08:30;;;;;;;11.00;10.30;;;;;;;1.82;100.00;98564.91;10097630;28;20427;-73
2024/02/09 13:13:26;;;;;;;12.15;11.13;;;;;;;1.99;100.00;98571.47;10092017;28;20079;-73
2024/02/09 13:18:23;;;;;;;11.00;10.30;;;;;;;2.04;100.00;98553.25;10096479;28;20471;-74
2024/02/09 13:23:23;;;;;;;11.75;11.00;;;;;;;2.14;100.00;98544.06;10099788;28;20049;-73
2024/02/09 13:28:23;;;;;;;11.40;10.70;;;;;;;2.19;100.00;98541.22;10102636;28;20130;-74
2024/02/09 13:33:20;;;;;;;10.93;10.18;;;;;;;2.07;100.00;98532.97;10103648;28;20049;-73
2024/02/09 13:38:16;;;;;;;11.38;10.68;;;;;;;2.13;100.00;98536.28;10106919;28;20046;-75
2024/02/09 13:43:13;;;;;;;10.90;10.20;;;;;;;1.88;100.00;98536.72;10106481;28;20105;-74
2024/02/09 13:48:09;;;;;;;11.32;10.52;;;;;;;2.04;100.00;98533.56;10100182;28;20050;-74
2024/02/09 13:53:07;;;;;;;10.45;9.75;;;;;;;1.94;100.00;98523.09;10102617;28;20107;-71
2024/02/09 13:58:06;;;;;;;11.07;10.27;;;;;;;1.89;100.00;98521.34;10096654;28;20043;-71
2024/02/09 14:03:03;;;;;;;11.10;10.30;;;;;;;2.05;100.00;98513.63;10108918;28;20050;-71
2024/02/09 14:07:59;;;;;;;10.27;9.55;;;;;;;2.12;100.00;98522.03;10103412;28;20051;-73
2024/02/09 14:12:56;;;;;;;10.98;10.23;;;;;;;2.20;100.00;98520.44;10107474;28;20038;-72
2024/02/09 14:17:54;;;;;;;11.48;10.48;;;;;;;2.23;100.00;98520.63;10103451;28;20054;-70
2024/02/09 14:22:51;;;;;;;10.88;10.18;;;;;;;2.24;100.00;98519.50;10094972;28;20514;-71
2024/02/09 14:27:50;;;;;;;11.15;10.35;;;;;;;2.30;100.00;98518.25;10106965;28;20039;-71
2024/02/09 14:32:46;;;;;;;11.25;10.38;;;;;;;2.31;100.00;98527.91;10108433;28;20403;-71
2024/02/09 14:37:44;;;;;;;12.32;11.32;;;;;;;2.37;100.00;98525.84;10096245;28;20051;-71
2024/02/09 14:42:40;;;;;;;11.15;10.32;;;;;;;2.33;100.00;98530.28;10097959;28;20471;-72
2024/02/09 14:47:37;;;;;;;11.02;10.32;;;;;;;2.36;100.00;98524.25;10104123;28;20051;-71
2024/02/09 14:52:33;;;;;;;10.52;9.82;;;;;;;2.44;100.00;98520.78;10107796;28;20090;-71
2024/02/09 14:57:30;;;;;;;11.27;10.38;;;;;;;2.33;100.00;98518.72;10094686;28;20512;-71
2024/02/09 15:02:27;;;;;;;11.65;10.65;;;;;;;2.44;100.00;98514.59;10092674;28;20043;-71
2024/02/09 15:07:27;;;;;;;11.27;10.38;;;;;;;2.43;100.00;98518.38;10113460;28;20138;-71
2024/02/09 15:12:24;;;;;;;11.02;10.02;;;;;;;2.38;100.00;98515.84;10109768;28;20085;-72
2024/02/09 15:17:22;;;;;;;10.68;9.98;;;;;;;2.47;100.00;98522.03;10112094;28;20039;-71
2024/02/09 15:22:19;;;;;;;10.95;10.15;;;;;;;2.37;100.00;98514.25;10097363;28;20066;-70
2024/02/09 15:27:18;;;;;;;10.45;9.70;;;;;;;2.45;100.00;98516.16;10113597;28;20105;-71
2024/02/09 15:32:15;;;;;;;10.75;10.05;;;;;;;2.51;100.00;98517.59;10103271;28;20101;-73
2024/02/09 15:37:12;;;;;;;11.45;10.45;;;;;;;2.43;100.00;98523.78;10106667;28;20130;-71
2024/02/09 15:42:08;;;;;;;11.32;10.43;;;;;;;2.60;100.00;98512.19;10114203;28;20058;-71
2024/02/09 15:47:05;;;;;;;11.90;10.90;;;;;;;2.59;100.00;98516.78;10106585;28;20050;-72
2024/02/09 15:52:02;;;;;;;11.95;11.05;;;;;;;2.43;100.00;98523.78;10109395;28;20043;-71
2024/02/09 15:56:58;;;;;;;11.00;10.20;;;;;;;2.53;100.00;98523.47;10110076;28;20047;-71
2024/02/09 16:01:55;;;;;;;11.95;11.05;;;;;;;2.52;100.00;98516.47;10101376;28;20941;-72
2024/02/09 16:06:51;;;;;;;11.75;10.90;;;;;;;2.54;100.00;98514.25;10098603;28;20077;-71
2024/02/09 16:11:48;;;;;;;11.30;10.43;;;;;;;2.63;100.00;98509.66;10101933;28;20414;-72
2024/02/09 16:16:44;;;;;;;12.50;11.50;;;;;;;2.61;100.00;98503.78;10103569;28;20537;-69
2024/02/09 16:21:42;;;;;;;12.45;11.43;;;;;;;2.63;100.00;98501.56;10108412;28;20105;-73
2024/02/09 16:26:39;;;;;;;12.93;11.55;;;;;;;2.65;100.00;98498.56;10094705;28;20055;-71
2024/02/09 16:31:38;;;;;;;13.85;12.43;;;;;;;2.63;100.00;98506.97;10114006;28;20046;-69
2024/02/09 16:36:39;;;;;;;12.80;11.90;;;;;;;2.71;100.00;98519.63;10108055;28;20051;-70
2024/02/09 16:41:35;;;;;;;13.20;12.20;;;;;;;2.78;100.00;98515.66;10109721;28;20055;-70
2024/02/09 16:46:32;;;;;;;13.63;12.55;;;;;;;2.84;100.00;98517.09;10103098;28;20047;-71
2024/02/09 16:51:28;;;;;;;14.25;13.15;;;;;;;2.80;100.00;98521.53;10104911;28;20042;-70
2024/02/09 16:56:25;;;;;;;15.57;14.30;;;;;;;2.86;100.00;98506.78;10092230;28;21761;-70
2024/02/09 17:01:24;;;;;;;15.15;13.95;;;;;;;2.85;100.00;98510.56;10105808;28;20396;-70
2024/02/09 17:06:20;;;;;;;14.45;13.35;;;;;;;2.88;100.00;98512.66;10099437;28;20043;-70
2024/02/09 17:11:18;;;;;;;15.93;14.55;;;;;;;2.87;100.00;98516.44;10104779;28;20057;-70
2024/02/09 17:16:15;;;;;;;15.38;14.05;;;;;;;2.89;100.00;98514.22;10107032;28;20529;-70
2024/02/09 17:21:17;;;;;;;15.32;13.88;;;;;;;2.88;100.00;98520.75;10090704;28;20059;-70
2024/02/09 17:26:17;;;;;;;15.03;13.83;;;;;;;2.93;100.00;98525.97;10096131;28;20621;-70
2024/02/09 17:31:14;;;;;;;15.82;14.48;;;;;;;2.95;100.00;98524.53;10091071;28;20050;-70
2024/02/09 17:36:11;;;;;;;16.77;15.20;;;;;;;2.94;100.00;98527.56;10092258;28;20051;-70
2024/02/09 17:41:10;;;;;;;17.70;15.93;;;;;;;2.98;100.00;98544.69;10097531;28;20049;-70
2024/02/09 17:46:07;;;;;;;17.42;15.90;;;;;;;2.99;100.00;98546.28;10100771;28;20141;-70
2024/02/09 17:51:06;;;;;;;18.05;16.38;;;;;;;3.00;100.00;98542.47;10093706;28;20503;-70
2024/02/09 17:56:03;;;;;;;18.75;16.85;;;;;;;3.01;100.00;98544.03;10097246;28;20049;-69
2024/02/09 18:01:00;;;;;;;19.83;17.90;;;;;;;2.94;100.00;98549.94;10100687;28;20459;-71
2024/02/09 18:05:56;;;;;;;18.52;16.73;;;;;;;3.03;100.00;98547.22;10095021;28;20082;-70
2024/02/09 18:10:53;;;;;;;19.02;17.23;;;;;;;3.07;100.00;98542.00;10083652;28;20046;-71
2024/02/09 18:15:49;;;;;;;20.92;17.65;;;;;;;3.10;100.00;98557.53;10095548;28;20055;-71
2024/02/09 18:20:50;;;;;;;20.02;17.60;;;;;;;3.00;100.00;98558.69;10093176;28;20074;-70
2024/02/09 18:25:47;;;;;;;19.45;17.55;;;;;;;3.04;100.00;98556.94;10095219;28;20050;-71
2024/02/09 18:30:44;;;;;;;20.52;18.33;;;;;;;2.97;100.00;98564.72;10094134;28;20063;-71
2024/02/09 18:35:42;;;;;;;20.30;17.48;;;;;;;3.04;100.00;98556.94;10092650;28;20126;-71
2024/02/09 18:40:39;;;;;;;19.15;17.25;;;;;;;3.17;100.00;98547.81;10094705;28;20047;-70
2024/02/09 18:45:36;;;;;;;22.35;18.38;;;;;;;3.12;100.00;98564.19;10093785;28;20051;-72
2024/02/09 18:50:33;;;;;;;21.25;19.05;;;;;;;3.14;100.00;98564.69;10104606;28;20048;-71
2024/02/09 18:55:29;;;;;;;24.70;20.33;;;;;;;3.19;100.00;98565.63;10103715;28;20047;-72
2024/02/09 19:00:27;;;;;;;20.42;17.73;;;;;;;3.24;100.00;98568.16;10087366;28;20085;-71
2024/02/09 19:05:23;;;;;;;22.05;19.73;;;;;;;3.28;100.00;98571.81;10098081;28;20043;-71
2024/02/09 19:10:20;;;;;;;22.35;18.45;;;;;;;3.21;100.00;98574.22;10095982;28;20483;-69
2024/02/09 19:15:17;;;;;;;23.13;20.60;;;;;;;3.29;100.00;98565.28;10091894;28;20137;-69
2024/02/09 19:20:14;;;;;;;22.90;19.55;;;;;;;3.36;100.00;98576.38;10097515;28;20046;-69
2024/02/09 19:25:10;;;;;;;23.08;19.65;;;;;;;3.32;100.00;98586.25;10094245;28;20098;-71
2024/02/09 19:30:10;;;;;;;22.75;19.60;;;;;;;3.33;100.00;98587.84;10111242;28;20139;-72
2024/02/09 19:35:07;;;;;;;24.10;20.63;;;;;;;3.42;100.00;98596.72;10103968;28;20039;-72
2024/02/09 19:40:04;;;;;;;25.05;20.92;;;;;;;3.39;100.00;98597.38;10088811;28;20078;-73
2024/02/09 19:45:01;;;;;;;23.48;20.63;;;;;;;3.46;100.00;98586.84;10095164;28;20051;-71
2024/02/09 19:49:59;;;;;;;25.33;21.50;;;;;;;3.49;100.00;98588.91;10097459;28;20275;-71
2024/02/09 19:54:59;;;;;;;24.33;21.08;;;;;;;3.56;100.00;98585.69;10111413;28;20065;-70
2024/02/09 19:59:55;;;;;;;25.10;21.83;;;;;;;3.59;100.00;98585.84;10109897;28;20069;-70
2024/02/09 20:04:55;;;;;;;25.60;22.00;;;;;;;3.56;100.00;98591.91;10106908;28;20058;-69
2024/02/09 20:09:51;;;;;;;27.50;22.10;;;;;;;3.54;100.00;98588.72;10107822;28;20051;-71
2024/02/09 20:14:48;;;;;;;24.52;20.70;;;;;;;3.63;100.00;98590.63;10114700;28;20039;-71
2024/02/09 20:19:44;;;;;;;25.77;22.10;;;;;;;3.66;100.00;98589.97;10113595;28;20042;-71
2024/02/09 20:24:41;;;;;;;26.40;20.50;;;;;;;3.71;100.00;98597.88;10122569;28;20098;-71
2024/02/09 20:29:37;;;;;;;27.55;22.17;;;;;;;3.74;100.00;98602.66;10107503;28;20050;-70
2024/02/09 20:34:34;;;;;;;26.00;21.58;;;;;;;3.63;100.00;98612.22;10108963;28;20055;-70
2024/02/09 20:39:33;;;;;;;28.42;22.73;;;;;;;3.59;100.00;98606.66;10094801;28;20043;-69
2024/02/09 20:44:29;;;;;;;30.75;22.10;;;;;;;3.63;100.00;98612.22;10097057;28;20784;-69
2024/02/09 20:49:28;;;;;;;25.70;21.45;;;;;;;3.66;100.00;98611.56;10102722;28;20078;-70
2024/02/09 20:54:25;;;;;;;29.35;21.95;;;;;;;3.70;100.00;98617.94;10092515;28;20047;-70
2024/02/09 20:59:22;;;;;;;27.73;21.85;;;;;;;3.70;100.00;98626.03;10103540;28;20054;-71
2024/02/09 21:04:18;;;;;;;25.60;21.70;;;;;;;3.71;100.00;98631.13;10100847;28;20066;-71
2024/02/09 21:09:15;;;;;;;30.13;23.38;;;;;;;3.66;100.00;98633.19;10107949;28;20763;-71
2024/02/09 21:14:12;;;;;;;26.38;21.30;;;;;;;3.67;100.00;98634.81;10101346;28;20050;-70
2024/02/09 21:19:09;;;;;;;29.10;21.88;;;;;;;3.65;100.00;98637.81;10090179;28;20059;-71
2024/02/09 21:24:07;;;;;;;28.35;21.17;;;;;;;3.66;100.00;98644.78;10102720;28;20647;-72
2024/02/09 21:29:03;;;;;;;29.23;21.20;;;;;;;3.66;100.00;98649.41;10101910;28;20050;-70
2024/02/09 21:34:05;;;;;;;28.15;21.50;;;;;;;3.74;100.00;98656.72;10102945;28;20051;-70
2024/02/09 21:39:05;;;;;;;32.43;21.67;;;;;;;3.78;100.00;98652.22;10100802;28;20126;-70
2024/02/09 21:44:02;;;;;;;27.83;21.35;;;;;;;3.82;100.00;98641.59;10097392;28;20490;-70
2024/02/09 21:49:00;;;;;;;27.80;21.13;;;;;;;3.83;100.00;98646.66;10099931;28;20051;-70
2024/02/09 21:53:56;;;;;;;24.75;20.88;;;;;;;3.86;100.00;98643.31;10099415;28;20043;-71
2024/02/09 21:58:53;;;;;;;32.60;22.23;;;;;;;3.86;100.00;98637.91;10102537;28;20467;-70
2024/02/09 22:03:50;;;;;;;25.40;20.92;;;;;;;3.90;100.00;98638.84;10102335;28;20097;-71
2024/02/09 22:08:46;;;;;;;25.13;20.95;;;;;;;3.89;100.00;98634.53;10099173;28;20046;-71
2024/02/09 22:13:43;;;;;;;29.77;20.77;;;;;;;3.85;100.00;98641.72;10103049;28;20569;-71
2024/02/09 22:18:41;;;;;;;28.95;21.55;;;;;;;3.85;100.00;98652.53;10109786;28;20050;-73
2024/02/09 22:23:42;;;;;;;29.88;21.67;;;;;;;3.87;100.00;98654.91;10117158;28;20054;-70
2024/02/09 22:28:39;;;;;;;27.15;22.85;;;;;;;3.86;100.00;98648.72;10117838;28;20530;-71
2024/02/09 22:33:35;;;;;;;28.08;22.33;;;;;;;3.78;100.00;98641.41;10113005;28;20396;-71
2024/02/09 22:38:34;;;;;;;33.75;22.35;;;;;;;3.76;100.00;98638.25;10098756;28;20043;-74
2024/02/09 22:43:32;;;;;;;25.10;20.23;;;;;;;3.80;100.00;98634.56;10116082;28;20058;-73
2024/02/09 22:48:31;;;;;;;26.77;20.10;;;;;;;3.83;100.00;98643.97;10108788;28;20530;-74
2024/02/09 22:53:27;;;;;;;28.73;21.48;;;;;;;3.87;100.00;98644.88;10109625;28;20141;-73
2024/02/09 22:58:27;;;;;;;33.42;21.75;;;;;;;3.79;100.00;98643.03;10116444;28;20109;-75
2024/02/09 23:03:24;;;;;;;27.30;20.85;;;;;;;3.82;100.00;98650.47;10112080;28;20146;-75
2024/02/09 23:08:20;;;;;;;29.27;21.02;;;;;;;3.72;100.00;98653.53;10118255;28;20050;-75
2024/02/09 23:13:17;;;;;;;29.35;20.88;;;;;;;3.81;100.00;98665.13;10107205;28;20042;-74
2024/02/09 23:18:14;;;;;;;25.55;20.42;;;;;;;3.82;100.00;98653.19;10111320;28;20051;-74
2024/02/09 23:23:11;;;;;;;27.80;21.20;;;;;;;3.83;100.00;98665.59;10111348;28;20072;-74
2024/02/09 23:28:08;;;;;;;28.92;21.30;;;;;;;3.87;100.00;98650.28;10110696;28;20471;-76
2024/02/09 23:33:05;;;;;;;29.25;20.70;;;;;;;3.87;100.00;98655.69;10112074;28;20046;-73
2024/02/09 23:38:01;;;;;;;26.98;20.30;;;;;;;3.85;100.00;98666.03;10103268;28;20078;-74
2024/02/09 23:42:58;;;;;;;30.92;22.35;;;;;;;3.90;100.00;98665.06;10103763;28;20394;-74
2024/02/09 23:47:57;;;;;;;26.95;20.25;;;;;;;3.89;100.00;98658.88;10103045;28;20046;-74
2024/02/09 23:52:53;;;;;;;30.65;20.58;;;;;;;3.93;100.00;98654.41;10113760;28;20057;-74
2024/02/09 23:57:51;;;;;;;27.20;19.40;;;;;;;3.95;100.00;98652.19;10102761;28;20513;-73
